METAR Data
IDs: Format: Raw Decoded Include TAF

Data at: 0833 UTC 18 Nov 2018

PAEG 180753Z AUTO VRB06KT 10SM OVC038 M05/M11 A2976 RMK AO2 SLP094 T10501106 TSNO
PAEG 180653Z AUTO 11005KT 10SM OVC039 M06/M11 A2976 RMK AO2 SLP092 T10561106 TSNO
PAEG 180553Z AUTO 11005KT 10SM OVC033 M07/M11 A2976 RMK AO2 SLP096 T10671111 11067 21083 53001 TSNO
PAEG 180453Z AUTO 12009G17KT 10SM OVC040 M07/M12 A2976 RMK AO2 SLP095 T10671122 TSNO
PAEG 180353Z AUTO 11007G16KT 10SM OVC038 M07/M12 A2976 RMK AO2 SLP094 T10671122 TSNO
PAEG 180253Z AUTO 11010G16KT 10SM OVC039 M07/M13 A2976 RMK AO2 SLP095 T10721128 56011 TSNO
PAEG 180153Z AUTO 10008KT 10SM OVC039 M08/M13 A2977 RMK AO2 SLP097 T10831128 TSNO
PAEG 180053Z AUTO 11010G18KT 10SM OVC042 M08/M13 A2978 RMK AO2 SLP101 T10831133 TSNO
PAEG 172353Z AUTO VRB06KT 10SM OVC046 M08/M13 A2979 RMK AO2 SLP107 T10831133 11083 21089 50001 TSNO
PAEG 172253Z AUTO 12010KT 10SM OVC049 M09/M14 A2980 RMK AO2 SLP109 T10891139 TSNO
PAEG 172153Z AUTO 10007KT 10SM CLR M09/M14 A2980 RMK AO2 SLP109 T10891139 TSNO
PAEG 172053Z AUTO 12009KT 10SM CLR M09/M14 A2979 RMK AO2 SLP105 T10891139 56011 TSNO
PAEG 171953Z AUTO 11007G16KT 10SM OVC080 M08/M14 A2980 RMK AO2 SLP108 T10831139 TSNO
PAEG 171853Z AUTO 12009G16KT 10SM SCT070 OVC085 M08/M14 A2981 RMK AO2 SLP111 T10831139 TSNO
PAEG 171753Z AUTO 12009G15KT 10SM OVC085 M09/M14 A2982 RMK AO2 SLP117 T10891139 11089 21106 56018 TSNO
PAEG 171653Z AUTO 12008G14KT 10SM OVC090 M09/M14 A2982 RMK AO2 SLP117 T10891144 TSNO
PAEG 171553Z AUTO 11010G18KT 10SM OVC080 M09/M14 A2985 RMK AO2 SLP126 T10941144 TSNO
PAEG 171453Z AUTO 11006G15KT 10SM OVC080 M09/M14 A2988 RMK AO2 SLP137 T10941144 56026 TSNO
PAEG 171353Z AUTO 11007KT 10SM OVC075 M10/M15 A2990 RMK AO2 SLP145 T11001150 TSNO
PAEG 171253Z AUTO 10008KT 10SM FEW080 OVC100 M10/M15 A2992 RMK AO2 SLP153 T11001150 TSNO
PAEG 171153Z AUTO 09007KT 10SM OVC100 M11/M16 A2996 RMK AO2 SLP164 T11061156 11089 21106 58034 TSNO
PAEG 171053Z AUTO 09006KT 10SM BKN110 M11/M16 A3000 RMK AO2 SLP179 T11061156 TSNO
PAEG 170953Z AUTO 12008KT 10SM BKN100 M10/M15 A3004 RMK AO2 SLP192 T11001150 TSNO
PAEG 170853Z AUTO 09005KT 10SM OVC110 M09/M14 A3006 RMK AO2 SLP200 T10941144 410891172 56032 TSNO
PAEG 170753Z AUTO 09007KT 050V130 10SM OVC090 M09/M14 A3009 RMK AO2 SLP209 T10941144 TSNO
PAEG 170653Z AUTO 09006KT 10SM OVC120 M10/M15 A3012 RMK AO2 SLP222 T11001150 TSNO
PAEG 170553Z AUTO 08005KT 10SM FEW031 SCT120 M11/M16 A3016 RMK AO2 SLP233 T11061156 11106 21128 56021 TSNO
PAEG 170453Z AUTO VRB05KT 10SM CLR M11/M16 A3017 RMK AO2 SLP239 T11061156 TSNO
PAEG 170353Z AUTO 11008KT 080V140 10SM FEW030 M12/M16 A3020 RMK AO2 SLP249 T11171161 TSNO
PAEG 170253Z AUTO 10004KT 10SM CLR M12/M17 A3022 RMK AO2 SLP257 T11221167 56021 TSNO
PAEG 170153Z AUTO 10007KT 10SM CLR M13/M17 A3024 RMK AO2 SLP262 T11281172 TSNO
PAEG 170053Z AUTO 11008G15KT 10SM CLR M12/M17 A3027 RMK AO2 SLP274 T11221172 TSNO
PAEG 162353Z AUTO 12008G19KT 090V150 10SM CLR M12/M18 A3029 RMK AO2 SLP279 T11221178 11122 21150 58018 TSNO
PAEG 162253Z AUTO 13010G17KT 10SM CLR M12/M18 A3031 RMK AO2 SLP288 T11221178 TSNO
PAEG 162153Z AUTO 11011G19KT 080V140 10SM CLR M13/M18 A3032 RMK AO2 SLP291 T11331183 TSNO
PAEG 162053Z AUTO 11010G21KT 10SM CLR M14/M19 A3034 RMK AO2 PK WND 12026/2017 SLP298 T11391189 58004 TSNO